Time;durP1;ratioP1;P1;durP2;ratioP2;P2;SDS_P1;SDS_P2;PMS_P1;PMS_P2;Temp;Humidity;BMP_temperature;BMP_pressure;BME280_temperature;BME280_humidity;BME280_pressure;Samples;Min_cycle;Max_cycle;Signal;HPM_P1;HPM_P2
2023/12/14 00:02:16;;;;;;;5.63;4.28;;;3.80;99.90;;;;;;5044367;28;20226;-55
2023/12/14 00:04:42;;;;;;;7.50;5.50;;;3.70;99.90;;;;;;5052236;28;20644;-58
2023/12/14 00:07:14;;;;;;;8.75;7.63;;;3.70;99.90;;;;;;5049376;28;20216;-58
2023/12/14 00:09:41;;;;;;;9.82;6.75;;;3.60;99.90;;;;;;5046414;28;20210;-54
2023/12/14 00:12:08;;;;;;;9.55;8.13;;;3.60;99.90;;;;;;5052539;28;20232;-57
2023/12/14 00:14:34;;;;;;;9.30;8.35;;;3.50;99.90;;;;;;5063197;28;20202;-52
2023/12/14 00:17:01;;;;;;;13.77;9.05;;;3.50;99.90;;;;;;5064689;28;20610;-55
2023/12/14 00:19:28;;;;;;;11.50;9.70;;;3.40;99.90;;;;;;5055404;28;20210;-51
2023/12/14 00:21:55;;;;;;;10.60;9.65;;;3.40;99.90;;;;;;5045463;28;20727;-55
2023/12/14 00:24:23;;;;;;;10.20;9.20;;;3.30;99.90;;;;;;5052374;28;20208;-55
2023/12/14 00:26:50;;;;;;;10.07;9.18;;;3.20;99.90;;;;;;5052296;28;20290;-57
2023/12/14 00:29:17;;;;;;;8.43;7.45;;;3.20;99.90;;;;;;5053498;28;20610;-56
2023/12/14 00:31:43;;;;;;;7.60;6.90;;;3.10;99.90;;;;;;5072082;28;20229;-54
2023/12/14 00:34:10;;;;;;;10.75;9.23;;;3.00;99.90;;;;;;5072072;28;20668;-54
2023/12/14 00:36:37;;;;;;;9.55;8.38;;;3.00;99.90;;;;;;5071973;28;20205;-54
2023/12/14 00:39:04;;;;;;;8.38;7.57;;;2.90;99.90;;;;;;5059691;28;20202;-55
2023/12/14 00:41:33;;;;;;;9.00;8.10;;;2.90;99.90;;;;;;5051568;28;20256;-52
2023/12/14 00:43:59;;;;;;;11.93;7.97;;;2.80;99.90;;;;;;5052146;28;20206;-52
2023/12/14 00:46:26;;;;;;;8.68;7.22;;;2.80;99.90;;;;;;5050771;28;20224;-54
2023/12/14 00:48:53;;;;;;;8.60;7.90;;;2.80;99.90;;;;;;5051279;28;20298;-55
2023/12/14 00:51:20;;;;;;;9.13;8.32;;;2.70;99.90;;;;;;5051610;28;20210;-57
2023/12/14 00:53:47;;;;;;;10.30;7.43;;;2.60;99.90;;;;;;5051334;28;20226;-54
2023/12/14 00:56:13;;;;;;;10.27;7.75;;;2.60;99.90;;;;;;5043675;28;20284;-54
2023/12/14 00:58:42;;;;;;;8.75;7.20;;;2.50;99.90;;;;;;5051392;28;20593;-52
2023/12/14 01:01:08;;;;;;;10.10;7.15;;;2.50;99.90;;;;;;5051740;28;20562;-57
2023/12/14 01:03:35;;;;;;;9.02;7.97;;;2.50;99.90;;;;;;5051587;28;20590;-55
2023/12/14 01:06:02;;;;;;;9.07;7.28;;;2.40;99.90;;;;;;5051580;28;20212;-55
2023/12/14 01:08:29;;;;;;;10.77;8.23;;;2.40;99.90;;;;;;5051334;28;20206;-54
2023/12/14 01:10:56;;;;;;;11.13;8.18;;;2.40;99.90;;;;;;5051613;28;20592;-53
2023/12/14 01:13:22;;;;;;;9.00;6.75;;;2.40;99.90;;;;;;5050824;28;20313;-53
2023/12/14 01:15:51;;;;;;;9.52;8.63;;;2.40;99.90;;;;;;5051146;28;20198;-53
2023/12/14 01:18:18;;;;;;;10.18;7.93;;;2.40;99.90;;;;;;5050766;28;20210;-52
2023/12/14 01:20:44;;;;;;;11.60;8.57;;;2.40;99.90;;;;;;5050961;28;20218;-55
2023/12/14 01:23:11;;;;;;;9.75;8.10;;;2.50;99.90;;;;;;5050761;28;20318;-55
2023/12/14 01:25:38;;;;;;;13.82;8.48;;;2.50;99.90;;;;;;5050847;28;20206;-51
2023/12/14 01:28:05;;;;;;;7.70;6.85;;;2.50;99.90;;;;;;5050760;28;20228;-56
2023/12/14 01:30:32;;;;;;;16.10;4.90;;;2.50;99.90;;;;;;5051220;28;20238;-52
2023/12/14 01:33:00;;;;;;;11.00;6.65;;;2.60;99.90;;;;;;5051036;28;20232;-54
2023/12/14 01:35:28;;;;;;;10.35;6.50;;;2.60;99.90;;;;;;5051268;28;20210;-54
2023/12/14 01:37:55;;;;;;;14.55;5.10;;;2.60;99.90;;;;;;5051253;28;20298;-57
2023/12/14 01:40:22;;;;;;;18.52;5.85;;;2.70;99.90;;;;;;5051306;28;20210;-57
2023/12/14 01:42:48;;;;;;;9.90;4.35;;;2.70;99.90;;;;;;5051345;28;20311;-54
2023/12/14 01:45:16;;;;;;;6.47;3.55;;;2.70;99.90;;;;;;5051310;28;20240;-56
2023/12/14 01:47:43;;;;;;;13.27;3.95;;;2.70;99.90;;;;;;5050985;28;20206;-55
2023/12/14 01:50:11;;;;;;;18.48;5.47;;;2.80;99.90;;;;;;5051250;28;20685;-54
2023/12/14 01:52:38;;;;;;;8.48;4.85;;;2.80;99.90;;;;;;5051259;28;20234;-53
2023/12/14 01:55:06;;;;;;;22.48;5.43;;;2.80;99.90;;;;;;5051234;28;20210;-52
2023/12/14 01:57:33;;;;;;;14.95;4.60;;;2.80;99.90;;;;;;5042526;28;20701;-55
2023/12/14 01:59:59;;;;;;;11.80;5.57;;;2.80;99.90;;;;;;5050988;28;20214;-55
2023/12/14 02:02:27;;;;;;;10.20;5.10;;;2.90;99.90;;;;;;5049629;28;20214;-56
2023/12/14 02:04:54;;;;;;;8.20;4.95;;;2.90;99.90;;;;;;5041983;28;20199;-53
2023/12/14 02:07:22;;;;;;;15.18;5.72;;;2.90;99.90;;;;;;5047561;28;20207;-55
2023/12/14 02:09:50;;;;;;;6.45;4.75;;;2.90;99.90;;;;;;5046413;28;20698;-53
2023/12/14 02:12:17;;;;;;;13.27;5.38;;;2.90;99.90;;;;;;5050872;28;20222;-57
2023/12/14 02:14:44;;;;;;;10.75;5.32;;;2.90;99.90;;;;;;5050915;28;20210;-56
2023/12/14 02:17:11;;;;;;;5.72;4.20;;;2.90;99.90;;;;;;5050592;28;20217;-52
2023/12/14 02:19:37;;;;;;;7.60;4.03;;;2.90;99.90;;;;;;5050727;28;20238;-56
2023/12/14 02:22:05;;;;;;;9.57;5.78;;;3.00;99.90;;;;;;5050587;28;20244;-52
2023/12/14 02:24:33;;;;;;;6.82;6.07;;;3.00;99.90;;;;;;5050999;28;20202;-54
2023/12/14 02:27:00;;;;;;;12.93;4.40;;;3.00;99.90;;;;;;5050851;28;20212;-56
2023/12/14 02:29:27;;;;;;;10.60;6.25;;;3.00;99.90;;;;;;5050872;28;20305;-53
2023/12/14 02:31:54;;;;;;;8.15;5.95;;;3.10;99.90;;;;;;5051825;28;20332;-57
2023/12/14 02:34:20;;;;;;;7.72;4.70;;;3.10;99.90;;;;;;5051221;28;20207;-58
2023/12/14 02:36:47;;;;;;;6.13;5.13;;;3.10;99.90;;;;;;5049223;28;20245;-57
2023/12/14 02:39:14;;;;;;;7.47;4.68;;;3.10;99.90;;;;;;5054119;28;20217;-56
2023/12/14 02:41:42;;;;;;;7.43;5.65;;;3.10;99.90;;;;;;5054248;28;20232;-57
2023/12/14 02:44:09;;;;;;;7.25;5.43;;;3.10;99.90;;;;;;5054363;28;20293;-54
2023/12/14 02:46:36;;;;;;;6.90;5.00;;;3.20;99.90;;;;;;5054337;28;20207;-55
2023/12/14 02:49:03;;;;;;;6.72;5.93;;;3.20;99.90;;;;;;5053919;28;20210;-55
2023/12/14 02:51:29;;;;;;;8.40;6.32;;;3.20;99.90;;;;;;5054200;28;20236;-54
2023/12/14 02:53:57;;;;;;;6.72;5.75;;;3.20;99.90;;;;;;5054043;28;20233;-58
2023/12/14 02:56:24;;;;;;;6.65;5.47;;;3.20;99.90;;;;;;5053867;28;20206;-53
2023/12/14 02:58:53;;;;;;;10.68;5.57;;;3.20;99.90;;;;;;5053666;28;20210;-58
2023/12/14 03:01:21;;;;;;;8.38;6.78;;;3.30;99.90;;;;;;5054020;28;20210;-57
2023/12/14 03:03:48;;;;;;;9.80;5.35;;;3.30;99.90;;;;;;5053849;28;20684;-52
2023/12/14 03:06:15;;;;;;;8.85;5.85;;;3.30;99.90;;;;;;5053793;28;20301;-53
2023/12/14 03:08:42;;;;;;;10.73;5.05;;;3.30;99.90;;;;;;5053570;28;20297;-57
2023/12/14 03:11:08;;;;;;;8.40;5.90;;;3.40;99.90;;;;;;5053576;28;20220;-53
2023/12/14 03:13:35;;;;;;;10.18;6.05;;;3.30;99.90;;;;;;5053836;28;20605;-54
2023/12/14 03:16:04;;;;;;;5.28;4.57;;;3.40;99.90;;;;;;5053724;28;20301;-54
2023/12/14 03:18:31;;;;;;;5.20;4.13;;;3.40;99.90;;;;;;5053470;28;20627;-54
2023/12/14 03:20:58;;;;;;;6.53;4.65;;;3.40;99.90;;;;;;5053576;28;20241;-54
2023/12/14 03:23:25;;;;;;;9.10;5.45;;;3.40;99.90;;;;;;5053266;28;20634;-56
2023/12/14 03:25:51;;;;;;;5.53;4.70;;;3.40;99.90;;;;;;5053335;28;20301;-54
2023/12/14 03:28:18;;;;;;;6.00;4.20;;;3.40;99.90;;;;;;5053360;28;20210;-54
2023/12/14 03:30:45;;;;;;;6.53;5.15;;;3.40;99.90;;;;;;5053523;28;20206;-57
2023/12/14 03:33:13;;;;;;;9.05;5.25;;;3.50;99.90;;;;;;5053173;28;20236;-57
2023/12/14 03:35:42;;;;;;;9.90;6.85;;;3.50;99.90;;;;;;5053373;28;20305;-52
2023/12/14 03:38:09;;;;;;;8.35;6.80;;;3.50;99.90;;;;;;5051451;28;20211;-54
2023/12/14 03:40:36;;;;;;;9.45;6.05;;;3.50;99.90;;;;;;5046441;28;20297;-55
2023/12/14 03:43:03;;;;;;;7.72;4.15;;;3.50;99.90;;;;;;5052236;28;20226;-56
2023/12/14 03:45:30;;;;;;;5.10;4.50;;;3.50;99.90;;;;;;5052840;28;20213;-55
2023/12/14 03:47:57;;;;;;;4.75;3.72;;;3.50;99.90;;;;;;5052603;28;20206;-54
2023/12/14 03:50:25;;;;;;;10.25;5.38;;;3.50;99.90;;;;;;5053076;28;20225;-54
2023/12/14 03:52:52;;;;;;;5.15;4.43;;;3.60;99.90;;;;;;5052798;28;20242;-57
2023/12/14 03:55:19;;;;;;;4.55;4.15;;;3.60;99.90;;;;;;5052959;28;20205;-57
2023/12/14 03:57:46;;;;;;;3.33;2.95;;;3.60;99.90;;;;;;5052754;28;20206;-52
2023/12/14 04:00:14;;;;;;;5.40;3.00;;;3.60;99.90;;;;;;5052970;28;20206;-51
2023/12/14 04:02:41;;;;;;;3.78;3.10;;;3.60;99.90;;;;;;5052680;28;20232;-53
2023/12/14 04:05:08;;;;;;;3.78;2.40;;;3.60;99.90;;;;;;5052687;28;20206;-55
2023/12/14 04:07:39;;;;;;;8.90;3.30;;;3.60;99.90;;;;;;5052225;28;20206;-51
2023/12/14 04:10:07;;;;;;;3.00;2.72;;;3.60;99.90;;;;;;5052784;28;20302;-55
2023/12/14 04:12:33;;;;;;;3.25;2.95;;;3.60;99.90;;;;;;5052510;28;20226;-54
2023/12/14 04:15:00;;;;;;;6.38;3.97;;;3.60;99.90;;;;;;5052339;28;20302;-57
2023/12/14 04:17:27;;;;;;;3.60;3.30;;;3.60;99.90;;;;;;5052412;28;20297;-52
2023/12/14 04:19:54;;;;;;;5.85;4.00;;;3.60;99.90;;;;;;5052479;28;20222;-54
2023/12/14 04:22:21;;;;;;;3.97;3.67;;;3.60;99.90;;;;;;5052194;28;20340;-54
2023/12/14 04:24:49;;;;;;;6.82;3.67;;;3.60;99.90;;;;;;5052307;28;20203;-54
2023/12/14 04:27:16;;;;;;;4.38;3.20;;;3.60;99.90;;;;;;5052383;28;20206;-55
2023/12/14 04:29:43;;;;;;;5.30;4.10;;;3.60;99.90;;;;;;5052038;28;20775;-53
2023/12/14 04:32:10;;;;;;;5.47;3.17;;;3.60;99.90;;;;;;5051773;28;20231;-52
2023/12/14 04:34:37;;;;;;;4.32;3.30;;;3.60;99.90;;;;;;5051866;28;20316;-57
2023/12/14 04:37:04;;;;;;;3.70;3.42;;;3.60;99.90;;;;;;5052083;28;20214;-55
2023/12/14 04:39:31;;;;;;;4.15;3.33;;;3.60;99.90;;;;;;5051758;28;20297;-57
2023/12/14 04:41:59;;;;;;;4.53;3.38;;;3.60;99.90;;;;;;5051088;28;20223;-54
2023/12/14 04:44:26;;;;;;;4.78;4.28;;;3.60;99.90;;;;;;5051622;28;20293;-54
2023/12/14 04:46:52;;;;;;;4.88;3.20;;;3.60;99.90;;;;;;5051775;28;20592;-55
2023/12/14 04:49:20;;;;;;;4.45;3.40;;;3.60;99.90;;;;;;5050314;28;20217;-54
2023/12/14 04:51:47;;;;;;;6.70;3.78;;;3.60;99.90;;;;;;5051922;28;20603;-52
2023/12/14 04:54:14;;;;;;;9.55;4.35;;;3.60;99.90;;;;;;5051591;28;20226;-53
2023/12/14 04:56:44;;;;;;;6.22;4.45;;;3.60;99.90;;;;;;5051730;28;20755;-53
2023/12/14 04:59:12;;;;;;;6.57;4.13;;;3.60;99.90;;;;;;5051702;28;20260;-53
2023/12/14 05:01:39;;;;;;;5.35;4.80;;;3.60;99.90;;;;;;5051691;28;20231;-53
2023/12/14 05:04:06;;;;;;;7.78;5.60;;;3.60;99.90;;;;;;5051827;28;20654;-55
2023/12/14 05:06:35;;;;;;;4.65;4.15;;;3.60;99.90;;;;;;5051761;28;20222;-53
2023/12/14 05:09:04;;;;;;;5.10;3.92;;;3.60;99.90;;;;;;5051547;28;20627;-53
2023/12/14 05:11:31;;;;;;;5.35;4.47;;;3.60;99.90;;;;;;5051587;28;20276;-55
2023/12/14 05:13:57;;;;;;;4.03;3.72;;;3.60;99.90;;;;;;5051548;28;20232;-53
2023/12/14 05:16:26;;;;;;;5.03;4.45;;;3.60;99.90;;;;;;5051357;28;20622;-53
2023/12/14 05:18:53;;;;;;;7.78;3.97;;;3.60;99.90;;;;;;5051252;28;20673;-53
2023/12/14 05:21:20;;;;;;;11.52;3.55;;;3.60;99.90;;;;;;5051527;28;20301;-54
2023/12/14 05:23:47;;;;;;;5.57;4.03;;;3.60;99.90;;;;;;5051562;28;20628;-53
2023/12/14 05:26:14;;;;;;;4.22;3.88;;;3.60;99.90;;;;;;5051606;28;20210;-54
2023/12/14 05:28:41;;;;;;;3.65;3.35;;;3.60;99.90;;;;;;5051212;28;20297;-52
2023/12/14 05:31:07;;;;;;;6.13;3.70;;;3.60;99.90;;;;;;5051460;28;20206;-53
2023/12/14 05:33:38;;;;;;;5.18;4.60;;;3.60;99.90;;;;;;5051609;28;20596;-53
2023/12/14 05:36:10;;;;;;;5.95;5.43;;;3.60;99.90;;;;;;5051370;28;20715;-55
2023/12/14 05:38:36;;;;;;;6.05;5.45;;;3.60;99.90;;;;;;5051251;28;20209;-53
2023/12/14 05:41:04;;;;;;;6.85;5.20;;;3.60;99.90;;;;;;5051539;28;20206;-56
2023/12/14 05:43:30;;;;;;;5.57;5.05;;;3.60;99.90;;;;;;5051433;28;20285;-54
2023/12/14 05:45:57;;;;;;;4.95;4.38;;;3.60;99.90;;;;;;5051588;28;20626;-57
2023/12/14 05:48:26;;;;;;;5.88;4.65;;;3.60;99.90;;;;;;5051185;28;20309;-56
2023/12/14 05:50:54;;;;;;;7.80;3.45;;;3.60;99.90;;;;;;5051376;28;20834;-53
2023/12/14 05:53:21;;;;;;;4.43;4.03;;;3.60;99.90;;;;;;5050941;28;20237;-53
2023/12/14 05:55:48;;;;;;;4.35;3.70;;;3.60;99.90;;;;;;5051119;28;20206;-55
2023/12/14 05:58:15;;;;;;;6.95;4.47;;;3.60;99.90;;;;;;5050850;28;20206;-54
2023/12/14 06:00:42;;;;;;;8.27;5.07;;;3.70;99.90;;;;;;5050832;28;20211;-56
2023/12/14 06:03:09;;;;;;;5.68;5.25;;;3.70;99.90;;;;;;5044800;28;20230;-58
2023/12/14 06:05:36;;;;;;;9.02;5.93;;;3.70;99.90;;;;;;5042751;28;20224;-55
2023/12/14 06:08:05;;;;;;;9.77;6.45;;;3.70;99.90;;;;;;5053875;28;20206;-53
2023/12/14 06:10:32;;;;;;;6.00;4.93;;;3.80;99.90;;;;;;5054808;28;20312;-55
2023/12/14 06:12:59;;;;;;;10.25;7.90;;;3.80;99.90;;;;;;5054934;28;20230;-52
2023/12/14 06:15:26;;;;;;;8.85;6.93;;;3.80;99.90;;;;;;5054680;28;20817;-54
2023/12/14 06:17:52;;;;;;;10.57;9.55;;;3.90;99.90;;;;;;5054527;28;20202;-52
2023/12/14 06:20:19;;;;;;;7.38;6.68;;;3.90;99.90;;;;;;5046202;28;20213;-52
2023/12/14 06:22:46;;;;;;;11.13;8.63;;;3.90;99.90;;;;;;5054445;28;20260;-56
2023/12/14 06:25:14;;;;;;;8.93;4.45;;;3.90;99.90;;;;;;5054523;28;20217;-53
2023/12/14 06:27:42;;;;;;;6.63;5.40;;;4.00;99.90;;;;;;5054293;28;20203;-53
2023/12/14 06:30:10;;;;;;;7.78;5.55;;;4.00;99.90;;;;;;5054745;28;20217;-52
2023/12/14 06:32:37;;;;;;;8.52;5.95;;;4.00;99.90;;;;;;5054384;28;20230;-57
2023/12/14 06:35:05;;;;;;;7.68;6.25;;;4.00;99.90;;;;;;5054576;28;20231;-53
2023/12/14 06:37:31;;;;;;;9.18;8.25;;;4.00;99.90;;;;;;5053979;28;20297;-55
2023/12/14 06:39:58;;;;;;;9.23;7.15;;;4.00;99.90;;;;;;5054122;28;20207;-56
2023/12/14 06:42:28;;;;;;;5.72;5.20;;;4.00;99.90;;;;;;5054401;28;20317;-56
2023/12/14 06:44:55;;;;;;;7.38;6.78;;;3.90;99.90;;;;;;5054590;28;20585;-52
2023/12/14 06:47:22;;;;;;;8.57;7.30;;;4.00;99.90;;;;;;5054313;28;20206;-54
2023/12/14 06:49:50;;;;;;;12.27;9.23;;;3.90;99.90;;;;;;5053859;28;20297;-56
2023/12/14 06:52:16;;;;;;;7.97;7.18;;;3.90;99.90;;;;;;5045430;28;20219;-53
2023/12/14 06:54:43;;;;;;;10.43;7.07;;;3.90;99.90;;;;;;5054153;28;20230;-51
2023/12/14 06:57:10;;;;;;;12.45;6.50;;;3.90;99.90;;;;;;5053924;28;20217;-55
2023/12/14 06:59:38;;;;;;;6.10;5.18;;;3.90;99.90;;;;;;5053905;28;20585;-53
2023/12/14 07:02:05;;;;;;;7.43;6.05;;;3.90;99.90;;;;;;5053848;28;20230;-56
2023/12/14 07:04:32;;;;;;;10.05;6.15;;;3.90;99.90;;;;;;5053947;28;20210;-53
2023/12/14 07:06:59;;;;;;;7.05;6.38;;;3.90;99.90;;;;;;5053664;28;20604;-57
2023/12/14 07:09:26;;;;;;;10.10;8.00;;;3.90;99.90;;;;;;5053628;28;20685;-51
2023/12/14 07:11:53;;;;;;;7.90;6.95;;;3.90;99.90;;;;;;5053816;28;20317;-54
2023/12/14 07:14:20;;;;;;;11.73;7.97;;;3.90;99.90;;;;;;5053725;28;20316;-53
2023/12/14 07:16:48;;;;;;;13.10;8.68;;;3.90;99.90;;;;;;5053655;28;20577;-55
2023/12/14 07:19:14;;;;;;;7.35;6.65;;;3.90;99.90;;;;;;5052921;28;20206;-59
2023/12/14 07:21:41;;;;;;;9.15;5.60;;;4.00;99.90;;;;;;5053444;28;20234;-54
2023/12/14 07:24:08;;;;;;;5.13;4.63;;;4.00;99.90;;;;;;5053774;28;20644;-56
2023/12/14 07:26:35;;;;;;;7.00;5.15;;;4.00;99.90;;;;;;5053373;28;20206;-53
2023/12/14 07:29:02;;;;;;;6.55;4.70;;;4.00;99.90;;;;;;5053354;28;20214;-54
2023/12/14 07:31:29;;;;;;;8.20;7.35;;;4.00;99.90;;;;;;5053316;28;20233;-53
2023/12/14 07:33:57;;;;;;;8.00;6.63;;;4.00;99.90;;;;;;5053364;28;20230;-54
2023/12/14 07:36:24;;;;;;;10.02;7.30;;;4.00;99.90;;;;;;5053446;28;20206;-53
2023/12/14 07:38:50;;;;;;;12.82;9.35;;;4.10;99.90;;;;;;5053106;28;20210;-54
2023/12/14 07:41:17;;;;;;;12.55;8.68;;;4.10;99.90;;;;;;5053271;28;20206;-55
2023/12/14 07:43:44;;;;;;;7.60;6.75;;;4.10;99.90;;;;;;5053212;28;20216;-58
2023/12/14 07:46:11;;;;;;;10.60;7.75;;;4.20;99.90;;;;;;5053034;28;20585;-52
2023/12/14 07:48:38;;;;;;;10.18;9.10;;;4.20;99.90;;;;;;5052708;28;20209;-58
2023/12/14 07:51:06;;;;;;;10.20;9.27;;;4.20;99.90;;;;;;5052960;28;20301;-55
2023/12/14 07:53:33;;;;;;;11.02;8.77;;;4.30;99.90;;;;;;5053119;28;20213;-57
2023/12/14 07:56:02;;;;;;;12.18;9.43;;;4.30;99.90;;;;;;5052797;28;20230;-57
2023/12/14 07:58:29;;;;;;;14.10;9.07;;;4.30;99.90;;;;;;5052685;28;20202;-53
2023/12/14 08:00:56;;;;;;;9.07;7.30;;;4.40;99.90;;;;;;5052727;28;20228;-57
2023/12/14 08:03:23;;;;;;;9.02;8.10;;;4.40;99.90;;;;;;5048032;28;20238;-55
2023/12/14 08:05:50;;;;;;;10.43;9.43;;;4.50;99.90;;;;;;5038238;28;20211;-52
2023/12/14 08:08:18;;;;;;;8.80;7.90;;;4.50;99.90;;;;;;5032702;28;20728;-54
2023/12/14 08:10:44;;;;;;;11.15;8.55;;;4.50;99.90;;;;;;5032804;28;20206;-54
2023/12/14 08:13:11;;;;;;;10.38;9.32;;;4.60;99.90;;;;;;5032690;28;20318;-55
2023/12/14 08:15:38;;;;;;;9.40;8.50;;;4.70;99.90;;;;;;5032375;28;20227;-58
2023/12/14 08:18:05;;;;;;;14.18;9.20;;;4.70;99.90;;;;;;5032541;28;20587;-56
2023/12/14 08:20:32;;;;;;;7.95;6.88;;;4.70;99.90;;;;;;5032500;28;20753;-56
2023/12/14 08:22:59;;;;;;;8.30;7.22;;;4.80;99.90;;;;;;5032452;28;20239;-56
2023/12/14 08:25:27;;;;;;;11.00;10.00;;;4.80;99.90;;;;;;5032577;28;20298;-53
2023/12/14 08:27:54;;;;;;;11.93;10.73;;;4.90;99.90;;;;;;5032196;28;20218;-52
2023/12/14 08:30:21;;;;;;;12.02;10.70;;;4.90;99.90;;;;;;5031520;28;20693;-57
2023/12/14 08:32:48;;;;;;;17.67;11.70;;;5.00;99.90;;;;;;5039320;28;20753;-58
2023/12/14 08:35:15;;;;;;;11.00;9.30;;;5.00;99.90;;;;;;5050987;28;20218;-52
2023/12/14 08:37:41;;;;;;;12.63;10.73;;;5.00;99.90;;;;;;5052175;28;20302;-52
2023/12/14 08:40:09;;;;;;;12.53;9.63;;;5.10;99.90;;;;;;5052159;28;20285;-54
2023/12/14 08:42:37;;;;;;;12.73;11.15;;;5.10;99.90;;;;;;5051678;28;20472;-52
2023/12/14 08:45:04;;;;;;;15.88;13.10;;;5.20;99.90;;;;;;5050610;28;20199;-55
2023/12/14 08:47:31;;;;;;;12.18;10.18;;;5.30;99.90;;;;;;5051185;28;20286;-52
2023/12/14 08:49:58;;;;;;;20.27;14.23;;;5.30;99.90;;;;;;5050829;28;20290;-53
2023/12/14 08:52:25;;;;;;;14.73;11.45;;;5.30;99.90;;;;;;5051260;28;20218;-54
2023/12/14 08:54:52;;;;;;;14.85;13.23;;;5.40;99.90;;;;;;5044842;28;20718;-54
2023/12/14 08:57:19;;;;;;;15.98;11.00;;;5.40;99.90;;;;;;5051376;28;20207;-55
2023/12/14 08:59:47;;;;;;;12.38;10.90;;;5.50;99.90;;;;;;5050822;28;20706;-56
2023/12/14 09:02:13;;;;;;;19.35;12.35;;;5.50;99.90;;;;;;5050448;28;20236;-56
2023/12/14 09:04:40;;;;;;;14.32;11.32;;;5.50;99.90;;;;;;5050978;28;20731;-56
2023/12/14 09:07:07;;;;;;;13.65;12.10;;;5.60;99.90;;;;;;5050938;28;20202;-57
2023/12/14 09:09:34;;;;;;;14.48;11.55;;;5.60;99.90;;;;;;5048031;28;20206;-56
2023/12/14 09:12:01;;;;;;;16.58;12.70;;;5.60;99.90;;;;;;5046938;28;20226;-58
2023/12/14 09:14:28;;;;;;;16.27;12.15;;;5.70;99.90;;;;;;5044281;28;20222;-55
2023/12/14 09:16:56;;;;;;;16.50;11.18;;;5.70;99.90;;;;;;5050480;28;20297;-56
2023/12/14 09:19:23;;;;;;;15.75;14.18;;;5.80;99.90;;;;;;5050088;28;20206;-54
2023/12/14 09:21:50;;;;;;;13.63;12.27;;;5.80;99.90;;;;;;5050836;28;20604;-58
2023/12/14 09:24:17;;;;;;;13.25;11.10;;;5.90;99.90;;;;;;5050464;28;20293;-57
2023/12/14 09:26:44;;;;;;;12.65;11.40;;;5.90;99.90;;;;;;5051022;28;20207;-56
2023/12/14 09:29:11;;;;;;;15.38;13.98;;;6.00;99.90;;;;;;5050060;28;20205;-58
2023/12/14 09:31:37;;;;;;;15.63;13.93;;;6.00;99.90;;;;;;5046737;28;20784;-57
2023/12/14 09:34:06;;;;;;;14.13;12.70;;;6.10;99.90;;;;;;5048122;28;20206;-57
2023/12/14 09:36:32;;;;;;;18.33;11.65;;;6.10;99.90;;;;;;5046212;28;20228;-55
2023/12/14 09:38:59;;;;;;;16.65;13.48;;;6.20;99.90;;;;;;5039992;28;20209;-55
2023/12/14 09:41:26;;;;;;;12.88;11.45;;;6.30;99.90;;;;;;5045363;28;20230;-56
2023/12/14 09:43:53;;;;;;;14.60;12.05;;;6.30;99.90;;;;;;5049287;28;20282;-58
2023/12/14 09:46:22;;;;;;;14.40;13.05;;;6.40;99.90;;;;;;5051921;28;20202;-56
2023/12/14 09:48:51;;;;;;;23.25;18.52;;;6.50;99.90;;;;;;5047967;28;20645;-55
2023/12/14 09:51:19;;;;;;;19.98;17.98;;;6.60;99.90;;;;;;5053677;28;20593;-56
2023/12/14 09:53:46;;;;;;;21.73;19.67;;;6.70;99.90;;;;;;5054686;28;20238;-53
2023/12/14 09:56:13;;;;;;;21.73;19.42;;;6.80;99.90;;;;;;5047317;28;20325;-57
2023/12/14 09:58:40;;;;;;;20.30;18.17;;;6.80;99.90;;;;;;5052069;28;20285;-57
2023/12/14 10:01:22;;;;;;;22.00;19.48;;;6.90;99.90;;;;;;5053854;28;20206;-54
2023/12/14 10:03:49;;;;;;;23.15;20.75;;;7.00;99.90;;;;;;5049363;28;20816;-54
2023/12/14 10:06:16;;;;;;;21.30;19.20;;;7.10;99.90;;;;;;5054753;28;20220;-56
2023/12/14 10:08:55;;;;;;;22.98;19.10;;;7.10;99.90;;;;;;5050201;28;20560;-55
2023/12/14 10:11:22;;;;;;;20.67;18.63;;;7.20;99.90;;;;;;5054600;28;20301;-58
2023/12/14 10:13:49;;;;;;;22.77;20.40;;;7.20;99.90;;;;;;5054713;28;20210;-55
2023/12/14 10:16:29;;;;;;;24.40;20.33;;;7.30;99.90;;;;;;5054228;28;20234;-59
2023/12/14 10:18:57;;;;;;;22.15;20.05;;;7.30;99.90;;;;;;5049659;28;20769;-56
2023/12/14 10:21:24;;;;;;;22.67;20.58;;;7.30;99.90;;;;;;5034560;28;20210;-57
2023/12/14 10:23:52;;;;;;;19.98;17.88;;;7.40;99.90;;;;;;5074794;22;20244;-59
2023/12/14 10:26:19;;;;;;;20.33;16.25;;;7.40;99.90;;;;;;5054279;28;20232;-59
2023/12/14 10:28:45;;;;;;;21.90;17.13;;;7.50;99.90;;;;;;5054161;28;20748;-57
2023/12/14 10:31:12;;;;;;;22.20;16.27;;;7.50;99.90;;;;;;5054356;28;20301;-60
2023/12/14 10:33:39;;;;;;;17.33;15.45;;;7.50;99.90;;;;;;5053865;28;20676;-56
2023/12/14 10:36:08;;;;;;;17.08;13.88;;;7.60;99.90;;;;;;5054184;28;20610;-56
2023/12/14 10:38:38;;;;;;;18.05;14.50;;;7.60;99.90;;;;;;5053689;28;20210;-57
2023/12/14 10:41:07;;;;;;;20.48;16.83;;;7.60;99.90;;;;;;5054200;28;20293;-58
2023/12/14 10:43:36;;;;;;;16.50;14.90;;;7.60;99.90;;;;;;5053709;28;20276;-57
2023/12/14 10:46:07;;;;;;;21.58;16.42;;;7.70;99.90;;;;;;5053593;28;20202;-58
2023/12/14 10:48:35;;;;;;;20.45;17.88;;;7.70;99.90;;;;;;5053847;28;20202;-61
2023/12/14 10:51:05;;;;;;;20.23;15.27;;;7.70;99.90;;;;;;5053714;28;20302;-59
2023/12/14 10:53:32;;;;;;;16.40;14.13;;;7.70;99.90;;;;;;5052020;28;20727;-60
2023/12/14 10:56:02;;;;;;;18.17;13.88;;;7.80;99.90;;;;;;5053643;28;20313;-58
2023/12/14 10:58:47;;;;;;;22.30;13.88;;;7.80;99.90;;;;;;5053348;28;20604;-58
2023/12/14 11:01:16;;;;;;;17.73;14.55;;;7.80;99.90;;;;;;5053773;28;20356;-58
2023/12/14 11:03:45;;;;;;;18.52;14.23;;;7.80;99.90;;;;;;5053590;28;20222;-59
2023/12/14 11:06:31;;;;;;;16.08;13.55;;;7.80;99.90;;;;;;5053677;28;20596;-55
2023/12/14 11:09:00;;;;;;;14.70;12.85;;;7.80;99.90;;;;;;5039591;28;20298;-58
2023/12/14 11:11:30;;;;;;;16.20;14.45;;;7.80;99.90;;;;;;5045299;28;20214;-58
2023/12/14 11:13:58;;;;;;;21.50;13.60;;;7.70;99.90;;;;;;5052657;28;20226;-59
2023/12/14 11:16:29;;;;;;;16.48;13.23;;;7.70;99.90;;;;;;5053140;28;20229;-58
2023/12/14 11:19:30;;;;;;;14.93;12.80;;;7.70;99.90;;;;;;5052980;28;20206;-61
2023/12/14 11:22:17;;;;;;;23.88;15.05;;;7.80;99.90;;;;;;5047915;28;20202;-59
2023/12/14 11:24:44;;;;;;;23.25;17.00;;;7.70;99.90;;;;;;5052929;28;20216;-59
2023/12/14 11:27:12;;;;;;;17.85;14.48;;;7.80;99.90;;;;;;5052955;28;20233;-59
2023/12/14 11:29:41;;;;;;;18.52;14.65;;;7.80;99.90;;;;;;5052427;28;20218;-57
2023/12/14 11:32:08;;;;;;;16.95;13.73;;;7.80;99.90;;;;;;5051532;28;20227;-56
2023/12/14 11:34:35;;;;;;;19.00;13.88;;;7.80;99.90;;;;;;5051512;28;20210;-60
2023/12/14 11:37:02;;;;;;;20.58;15.82;;;7.80;99.90;;;;;;5052348;28;20345;-61
2023/12/14 11:39:31;;;;;;;19.02;15.77;;;7.80;99.90;;;;;;5052499;28;20207;-61
2023/12/14 11:42:02;;;;;;;19.83;15.13;;;7.70;99.90;;;;;;5050716;28;20680;-61
2023/12/14 11:44:30;;;;;;;20.40;14.20;;;7.80;99.90;;;;;;5052133;28;20275;-61
2023/12/14 11:46:58;;;;;;;19.25;16.30;;;7.80;99.90;;;;;;5046875;28;20206;-61
2023/12/14 11:49:26;;;;;;;19.13;15.70;;;7.70;99.90;;;;;;5050310;28;20217;-61
2023/12/14 11:51:53;;;;;;;18.38;15.25;;;7.70;99.90;;;;;;5052024;28;20221;-61
2023/12/14 11:54:20;;;;;;;22.50;15.48;;;7.70;99.90;;;;;;5052044;28;20210;-61
2023/12/14 11:56:48;;;;;;;22.70;15.98;;;7.70;99.90;;;;;;5051911;28;20756;-61
2023/12/14 11:59:17;;;;;;;19.75;16.08;;;7.70;99.90;;;;;;5052013;28;20221;-61
2023/12/14 12:01:55;;;;;;;23.80;15.98;;;7.70;99.90;;;;;;5052378;28;20210;-59
2023/12/14 12:04:23;;;;;;;25.85;18.20;;;7.70;99.90;;;;;;5051437;28;20213;-61
2023/12/14 12:06:50;;;;;;;18.15;15.63;;;7.70;99.90;;;;;;5052222;28;20290;-61
2023/12/14 12:09:36;;;;;;;20.70;17.05;;;7.60;99.90;;;;;;5052085;28;20298;-61
2023/12/14 12:12:05;;;;;;;19.20;16.30;;;7.70;99.90;;;;;;5052313;28;20225;-61
2023/12/14 12:14:32;;;;;;;20.63;16.83;;;7.70;99.90;;;;;;5048745;28;20297;-61
2023/12/14 12:16:59;;;;;;;17.05;14.38;;;7.70;99.90;;;;;;5051712;28;20226;-61
2023/12/14 12:19:27;;;;;;;20.23;16.52;;;7.70;99.90;;;;;;5051875;28;20256;-61
2023/12/14 12:21:54;;;;;;;25.75;16.13;;;7.70;99.90;;;;;;5051741;28;20301;-61
2023/12/14 12:24:21;;;;;;;19.63;14.43;;;7.70;99.90;;;;;;5051872;28;20202;-58
2023/12/14 12:26:48;;;;;;;20.05;16.10;;;7.80;99.90;;;;;;5051459;28;20230;-60
2023/12/14 12:29:15;;;;;;;16.67;13.13;;;7.80;99.90;;;;;;5051712;28;20210;-61
2023/12/14 12:31:42;;;;;;;20.42;14.95;;;7.80;99.90;;;;;;5051773;28;20210;-61
2023/12/14 12:34:09;;;;;;;16.77;14.35;;;7.80;99.90;;;;;;5051580;28;20241;-60
2023/12/14 12:36:37;;;;;;;18.70;13.55;;;7.80;99.90;;;;;;5051632;28;20236;-60
2023/12/14 12:39:05;;;;;;;18.17;14.27;;;7.80;99.90;;;;;;5051655;28;20804;-61
2023/12/14 12:41:32;;;;;;;23.65;16.30;;;7.80;99.90;;;;;;5051247;28;20221;-60
2023/12/14 12:44:05;;;;;;;14.60;12.70;;;7.80;99.90;;;;;;5042032;28;20229;-61
2023/12/14 12:46:32;;;;;;;17.73;14.07;;;7.80;99.90;;;;;;5045188;28;20214;-58
2023/12/14 12:48:59;;;;;;;19.10;14.18;;;7.80;99.90;;;;;;5049926;28;20206;-60
2023/12/14 12:51:27;;;;;;;17.40;14.63;;;7.90;99.90;;;;;;5050836;28;20202;-61